Accueil
METAR-TAF:

METAR-TAF

Aéroports :

Aéroport international de Mascate

Mascate, Oman

latitude: 23-35N, longitude: 058-17E, altitude: 8 m

Observation

Le bulletin a été fait il y a 1 heure et 7 minutes, à 16:50 UTC
Vent 4 kt de est/nord-est
Température 32°C
Humidité 75%
Pression 1003 hPa
Visibilité 10 km ou plus
pas de nuages en-dessous de 1500 mètres et pas de cumulonimbus.

METAR: OOMS 231650Z 06004KT CAVOK 32/27 Q1003 NOSIG

Heure: 21:57 (17:57 UTC)

Prévision

Le bulletin a été fait il y a 57 minutes, à 17:00 UTC
Prévision valable du 23 à 18 UTC au 24 à 24 UTC
Vent 2 kt de direction variable
Visibilité: 8000 m
Evoluant progressivement
du 24 à 06 UTC au 24 à 08 UTC
Vent 13 kt de nord-est
Evoluant progressivement
du 24 à 15 UTC au 24 à 17 UTC
Vent 2 kt de direction variable

TAF: OOMS 231700Z 2318/2424 VRB02KT 8000 NSC BECMG 2406/2408 04013KT BECMG 2415/2417 VRB02KT

Observations et prévisions météorologiques de plus de 4000 aéroports (messages METAR et TAF).

Les stations disponibles sont représentées par des disques jaunes et rouges sur la carte.

Passer la souris dessus pour voir le nom de la station.

Cliquer dessus pour voir les observations et prévisions météorologiques.

Pour changer de carte: cliquez sur les boutons verts avec une croix noire pour zoomer, sur le bouton vert avec un tiret pour effectuer un zoom arrière, ou sur les flèches vertes pour les cartes adjacentes.


METAR-TAF: